createdAt,value
2018-09-05T00:01:06.238Z,14.70
2018-09-05T00:03:34.851Z,14.60
2018-09-05T00:06:03.571Z,14.50
2018-09-05T00:08:32.283Z,14.50
2018-09-05T00:11:01.036Z,14.50
2018-09-05T00:13:29.736Z,14.40
2018-09-05T00:15:58.343Z,14.40
2018-09-05T00:18:26.966Z,14.50
2018-09-05T00:20:55.568Z,14.40
2018-09-05T00:23:24.258Z,14.40
2018-09-05T00:25:53.906Z,14.40
2018-09-05T00:28:22.661Z,14.40
2018-09-05T00:30:51.391Z,14.30
2018-09-05T00:33:20.594Z,14.40
2018-09-05T00:35:49.395Z,14.50
2018-09-05T00:38:18.195Z,14.60
2018-09-05T00:40:46.930Z,14.70
2018-09-05T00:43:15.615Z,14.80
2018-09-05T00:45:44.243Z,14.70
2018-09-05T00:48:12.863Z,14.70
2018-09-05T00:50:42.963Z,14.60
2018-09-05T00:53:11.603Z,14.50
2018-09-05T00:55:40.236Z,14.30
2018-09-05T00:58:08.863Z,14.20
2018-09-05T01:00:37.575Z,14.20
2018-09-05T01:03:06.216Z,14.20
2018-09-05T01:05:34.806Z,14.10
2018-09-05T01:08:03.438Z,14.10
2018-09-05T01:10:32.032Z,14.10
2018-09-05T01:13:00.660Z,14.10
2018-09-05T01:15:29.344Z,14.10
2018-09-05T01:17:58.023Z,14.20
2018-09-05T01:20:26.758Z,14.20
2018-09-05T01:22:55.503Z,14.20
2018-09-05T01:25:25.172Z,14.20
2018-09-05T01:27:53.843Z,14.20
2018-09-05T01:30:26.071Z,14.10
2018-09-05T01:32:55.271Z,14.10
2018-09-05T01:35:23.879Z,14.10
2018-09-05T01:37:52.618Z,14.00
2018-09-05T01:40:21.308Z,14.00
2018-09-05T01:42:49.875Z,14.00
2018-09-05T01:45:18.466Z,14.10
2018-09-05T01:47:47.076Z,14.00
2018-09-05T01:50:15.754Z,14.00
2018-09-05T01:52:44.338Z,13.90
2018-09-05T01:55:12.936Z,13.90
2018-09-05T01:57:41.546Z,13.80
2018-09-05T02:00:14.896Z,13.80
2018-09-05T02:02:43.639Z,13.80
2018-09-05T02:05:12.323Z,13.70
2018-09-05T02:07:41.038Z,13.70
2018-09-05T02:10:09.700Z,13.50
2018-09-05T02:12:38.363Z,13.50
2018-09-05T02:15:07.044Z,13.30
2018-09-05T02:17:35.631Z,13.30
2018-09-05T02:20:04.331Z,13.20
2018-09-05T02:22:32.956Z,13.20
2018-09-05T02:25:01.593Z,13.20
2018-09-05T02:27:30.303Z,13.20
2018-09-05T02:29:58.971Z,13.10
2018-09-05T02:32:27.653Z,13.10
2018-09-05T02:34:56.281Z,13.00
2018-09-05T02:37:24.875Z,13.00
2018-09-05T02:39:53.538Z,13.00
2018-09-05T02:42:22.243Z,13.00
2018-09-05T02:44:51.043Z,13.00
2018-09-05T02:47:19.743Z,13.00
2018-09-05T02:49:48.430Z,13.00
2018-09-05T02:52:17.138Z,13.00
2018-09-05T02:54:45.927Z,13.10
2018-09-05T02:57:14.635Z,13.20
2018-09-05T02:59:43.368Z,13.10
2018-09-05T03:02:12.150Z,13.10
2018-09-05T03:04:40.878Z,13.10
2018-09-05T03:07:09.678Z,13.00
2018-09-05T03:09:38.397Z,13.00
2018-09-05T03:12:07.096Z,13.00
2018-09-05T03:14:35.703Z,13.00
2018-09-05T03:17:04.571Z,13.00
2018-09-05T03:19:33.228Z,12.90
2018-09-05T03:22:01.810Z,13.00
2018-09-05T03:24:30.467Z,13.00
2018-09-05T03:26:59.108Z,13.00
2018-09-05T03:29:27.710Z,13.10
2018-09-05T03:31:56.375Z,13.20
2018-09-05T03:34:25.089Z,13.20
2018-09-05T03:36:53.790Z,13.20
2018-09-05T03:39:22.499Z,13.10
2018-09-05T03:41:51.198Z,13.10
2018-09-05T03:44:19.923Z,13.20
2018-09-05T03:46:48.656Z,13.20
2018-09-05T03:49:17.431Z,13.10
2018-09-05T03:51:46.106Z,13.00
2018-09-05T03:54:14.725Z,13.00
2018-09-05T03:56:43.343Z,13.00
2018-09-05T03:59:11.929Z,12.90
2018-09-05T04:01:40.558Z,13.00
2018-09-05T04:04:09.282Z,13.00
2018-09-05T04:06:37.995Z,13.10
2018-09-05T04:09:08.278Z,13.10
2018-09-05T04:11:37.225Z,13.10
2018-09-05T04:14:05.891Z,13.10
2018-09-05T04:16:34.485Z,13.10
2018-09-05T04:19:03.081Z,13.00
2018-09-05T04:21:31.645Z,13.00
2018-09-05T04:24:00.291Z,13.00
2018-09-05T04:26:29.004Z,12.90
2018-09-05T04:28:57.692Z,12.80
2018-09-05T04:31:26.384Z,12.90
2018-09-05T04:33:54.988Z,12.90
2018-09-05T04:36:23.578Z,12.80
2018-09-05T04:38:52.158Z,12.70
2018-09-05T04:41:20.735Z,12.70
2018-09-05T04:43:49.404Z,12.80
2018-09-05T04:46:18.156Z,12.70
2018-09-05T04:48:46.851Z,12.70
2018-09-05T04:51:15.654Z,12.80
2018-09-05T04:53:44.253Z,12.80
2018-09-05T04:56:12.914Z,12.90
2018-09-05T04:58:41.496Z,12.90
2018-09-05T05:01:10.111Z,12.80
2018-09-05T05:03:38.691Z,12.80
2018-09-05T05:06:08.072Z,12.80
2018-09-05T05:08:36.710Z,12.80
2018-09-05T05:11:05.353Z,12.80
2018-09-05T05:13:33.998Z,12.80
2018-09-05T05:16:02.678Z,12.90
2018-09-05T05:18:31.363Z,12.90
2018-09-05T05:21:00.074Z,12.90
2018-09-05T05:23:28.775Z,12.90
2018-09-05T05:25:57.528Z,13.00
2018-09-05T05:28:26.313Z,13.00
2018-09-05T05:30:55.145Z,13.00
2018-09-05T05:33:23.914Z,13.10
2018-09-05T05:35:52.648Z,13.20
2018-09-05T05:38:21.290Z,13.10
2018-09-05T05:40:49.983Z,13.20
2018-09-05T05:43:18.651Z,13.40
2018-09-05T05:45:47.454Z,13.50
2018-09-05T05:48:16.203Z,13.50
2018-09-05T05:50:44.939Z,13.70
2018-09-05T05:53:13.664Z,13.90
2018-09-05T05:55:42.341Z,13.90
2018-09-05T05:58:11.056Z,13.90
2018-09-05T06:00:39.848Z,14.00
2018-09-05T06:03:08.602Z,14.10
2018-09-05T06:05:37.347Z,14.20
2018-09-05T06:08:06.152Z,14.40
2018-09-05T06:10:35.617Z,14.30
2018-09-05T06:13:04.922Z,14.40
2018-09-05T06:15:34.089Z,14.40
2018-09-05T06:18:02.795Z,14.70
2018-09-05T06:20:31.372Z,14.90
2018-09-05T06:23:00.100Z,15.10
2018-09-05T06:25:28.767Z,15.10
2018-09-05T06:27:57.896Z,15.30
2018-09-05T06:30:26.886Z,15.50
2018-09-05T06:32:55.720Z,15.90
2018-09-05T06:35:24.467Z,16.30
2018-09-05T06:37:53.195Z,16.50
2018-09-05T06:40:22.017Z,16.60
2018-09-05T06:42:50.723Z,16.90
2018-09-05T06:45:19.467Z,17.10
2018-09-05T06:47:48.082Z,17.30
2018-09-05T06:50:16.724Z,17.30
2018-09-05T06:52:45.380Z,17.70
2018-09-05T06:55:13.979Z,18.10
2018-09-05T06:57:42.654Z,18.30
2018-09-05T07:00:12.284Z,18.50
2018-09-05T07:02:43.567Z,18.60
2018-09-05T07:05:12.279Z,18.80
2018-09-05T07:07:40.974Z,19.10
2018-09-05T07:10:09.778Z,19.30
2018-09-05T07:12:38.506Z,19.20
2018-09-05T07:15:07.439Z,19.40
2018-09-05T07:17:36.336Z,19.90
2018-09-05T07:20:05.174Z,20.20
2018-09-05T07:22:34.034Z,20.20
2018-09-05T07:25:02.804Z,20.40
2018-09-05T07:27:31.596Z,20.60
2018-09-05T07:30:00.544Z,20.90
2018-09-05T07:32:29.291Z,20.90
2018-09-05T07:34:57.942Z,21.10
2018-09-05T07:37:26.650Z,21.20
2018-09-05T07:39:55.355Z,21.40
2018-09-05T07:42:24.548Z,21.60
2018-09-05T07:44:53.314Z,21.80
2018-09-05T07:47:22.213Z,21.90
2018-09-05T07:49:50.981Z,22.10
2018-09-05T07:52:19.768Z,22.40
2018-09-05T07:54:48.575Z,22.40
2018-09-05T07:57:17.362Z,22.80
2018-09-05T07:59:46.213Z,22.80
2018-09-05T08:02:14.911Z,23.00
2018-09-05T08:04:43.705Z,23.40
2018-09-05T08:07:12.392Z,23.80
2018-09-05T08:09:41.151Z,23.80
2018-09-05T08:12:09.833Z,23.80
2018-09-05T08:14:38.490Z,24.20
2018-09-05T08:17:07.193Z,24.30
2018-09-05T08:19:35.868Z,24.60
2018-09-05T08:22:04.675Z,25.00
2018-09-05T08:24:33.429Z,25.10
2018-09-05T08:27:02.145Z,24.90
2018-09-05T08:29:30.871Z,25.30
2018-09-05T08:31:59.773Z,25.60
2018-09-05T08:34:28.546Z,26.10
2018-09-05T08:36:57.593Z,26.20
2018-09-05T08:39:26.201Z,25.80
2018-09-05T08:41:55.039Z,25.70
2018-09-05T08:44:23.981Z,25.50
2018-09-05T08:46:52.799Z,25.90
2018-09-05T08:49:21.751Z,26.40
2018-09-05T08:51:50.666Z,26.60
2018-09-05T08:54:19.440Z,26.80
2018-09-05T08:56:48.210Z,27.00
2018-09-05T08:59:16.988Z,27.20
2018-09-05T09:01:45.689Z,27.10
2018-09-05T09:04:14.478Z,27.80
2018-09-05T09:06:43.113Z,28.00
2018-09-05T09:09:12.186Z,27.90
2018-09-05T09:11:41.443Z,28.10
2018-09-05T09:14:10.553Z,28.40
2018-09-05T09:16:39.431Z,28.70
2018-09-05T09:19:08.217Z,28.80
2018-09-05T09:21:36.988Z,28.80
2018-09-05T09:24:06.362Z,28.50
2018-09-05T09:26:35.099Z,28.90
2018-09-05T09:29:04.204Z,28.90
2018-09-05T09:31:33.027Z,29.10
2018-09-05T09:34:01.854Z,29.20
2018-09-05T09:36:30.669Z,29.40
2018-09-05T09:38:59.461Z,29.00
2018-09-05T09:41:29.107Z,28.90
2018-09-05T09:43:57.839Z,29.30
2018-09-05T09:46:27.821Z,29.70
2018-09-05T09:48:56.587Z,29.90
2018-09-05T09:51:25.309Z,29.90
2018-09-05T09:54:07.417Z,29.70
2018-09-05T09:56:36.355Z,29.30
2018-09-05T09:59:05.282Z,29.90
2018-09-05T10:01:40.584Z,30.20
2018-09-05T10:04:14.885Z,30.70
2018-09-05T10:06:50.375Z,30.80
2018-09-05T10:09:24.717Z,30.80
2018-09-05T10:11:58.977Z,31.00
2018-09-05T10:14:32.296Z,31.40
2018-09-05T10:17:06.756Z,31.60
2018-09-05T10:19:35.587Z,31.40
2018-09-05T10:22:04.589Z,30.90
2018-09-05T10:24:33.401Z,31.30
2018-09-05T10:27:02.191Z,31.50
2018-09-05T10:29:30.877Z,31.50
2018-09-05T10:31:59.757Z,32.00
2018-09-05T10:34:28.554Z,32.30
2018-09-05T10:36:57.506Z,32.10
2018-09-05T10:39:26.444Z,31.90
2018-09-05T10:41:55.544Z,31.30
2018-09-05T10:44:24.460Z,31.80
2018-09-05T10:46:53.296Z,32.00
2018-09-05T10:49:22.240Z,32.20
2018-09-05T10:51:54.263Z,32.40
2018-09-05T10:54:23.963Z,32.60
2018-09-05T10:56:52.799Z,32.80
2018-09-05T10:59:21.759Z,32.70
2018-09-05T11:01:50.686Z,32.60
2018-09-05T11:04:19.687Z,32.40
2018-09-05T11:06:48.566Z,32.60
2018-09-05T11:09:17.606Z,32.80
2018-09-05T11:11:46.514Z,32.40
2018-09-05T11:14:15.362Z,32.80
2018-09-05T11:16:44.221Z,32.30
2018-09-05T11:19:13.149Z,32.30
2018-09-05T11:21:41.969Z,32.60
2018-09-05T11:24:10.948Z,32.80
2018-09-05T11:26:39.765Z,33.00
2018-09-05T11:29:09.190Z,32.90
2018-09-05T11:31:38.021Z,32.70
2018-09-05T11:34:06.994Z,32.70
2018-09-05T11:36:35.914Z,33.10
2018-09-05T11:39:08.660Z,33.10
2018-09-05T11:41:37.494Z,33.60
2018-09-05T11:44:06.696Z,34.10
2018-09-05T11:46:36.153Z,33.70
2018-09-05T11:49:07.276Z,33.20
2018-09-05T11:51:36.519Z,33.10
2018-09-05T11:54:05.884Z,33.20
2018-09-05T11:56:34.789Z,32.90
2018-09-05T11:59:03.836Z,33.30
2018-09-05T12:01:32.896Z,32.70
2018-09-05T12:04:01.896Z,32.70
2018-09-05T12:06:30.804Z,33.00
2018-09-05T12:08:59.969Z,33.60
2018-09-05T12:11:28.904Z,34.00
2018-09-05T12:13:57.812Z,34.20
2018-09-05T12:16:26.791Z,34.10
2018-09-05T12:18:55.979Z,34.20
2018-09-05T12:21:25.020Z,34.40
2018-09-05T12:23:53.914Z,33.80
2018-09-05T12:26:22.776Z,33.60
2018-09-05T12:28:51.696Z,33.80
2018-09-05T12:31:20.824Z,33.70
2018-09-05T12:33:49.896Z,34.00
2018-09-05T12:36:18.818Z,34.00
2018-09-05T12:38:48.217Z,34.00
2018-09-05T12:41:17.156Z,33.90
2018-09-05T12:43:46.228Z,34.00
2018-09-05T12:46:15.139Z,33.60
2018-09-05T12:48:44.411Z,33.20
2018-09-05T12:51:13.739Z,31.80
2018-09-05T12:53:42.822Z,30.90
2018-09-05T12:56:11.593Z,30.50
2018-09-05T12:58:41.091Z,31.00
2018-09-05T13:01:10.241Z,31.70
2018-09-05T13:03:39.244Z,32.70
2018-09-05T13:06:08.319Z,33.30
2018-09-05T13:08:38.288Z,33.20
2018-09-05T13:11:07.302Z,33.60
2018-09-05T13:13:36.421Z,34.30
2018-09-05T13:16:06.249Z,34.20
2018-09-05T13:18:35.241Z,33.10
2018-09-05T13:21:04.218Z,32.90
2018-09-05T13:23:33.154Z,33.00
2018-09-05T13:26:04.521Z,33.70
2018-09-05T13:28:33.501Z,33.90
2018-09-05T13:31:02.474Z,33.30
2018-09-05T13:33:32.504Z,33.90
2018-09-05T13:36:01.644Z,34.30
2018-09-05T13:38:31.527Z,33.90
2018-09-05T13:41:00.723Z,33.90
2018-09-05T13:43:29.674Z,34.00
2018-09-05T13:45:58.633Z,33.80
2018-09-05T13:48:27.601Z,34.10
2018-09-05T13:50:56.964Z,34.30
2018-09-05T13:53:25.867Z,33.60
2018-09-05T13:55:54.677Z,32.60
2018-09-05T13:58:23.609Z,32.40
2018-09-05T14:00:53.521Z,32.70
2018-09-05T14:03:22.412Z,33.40
2018-09-05T14:05:51.294Z,33.70
2018-09-05T14:08:20.187Z,33.80
2018-09-05T14:10:49.102Z,33.70
2018-09-05T14:13:18.038Z,33.90
2018-09-05T14:15:47.601Z,34.10
2018-09-05T14:18:16.431Z,34.00
2018-09-05T14:20:45.429Z,33.90
2018-09-05T14:23:14.499Z,33.80
2018-09-05T14:25:43.294Z,33.20
2018-09-05T14:28:12.252Z,33.40
2018-09-05T14:30:41.166Z,33.20
2018-09-05T14:33:10.177Z,32.80
2018-09-05T14:35:39.184Z,32.80
2018-09-05T14:38:08.074Z,32.30
2018-09-05T14:40:36.899Z,31.80
2018-09-05T14:43:05.769Z,31.60
2018-09-05T14:45:35.101Z,32.20
2018-09-05T14:48:03.983Z,32.10
2018-09-05T14:50:32.890Z,32.10
2018-09-05T14:53:01.781Z,32.30
2018-09-05T14:55:30.756Z,32.30
2018-09-05T14:57:59.666Z,33.00
2018-09-05T15:00:28.532Z,32.90
2018-09-05T15:02:58.463Z,32.70
2018-09-05T15:05:27.314Z,32.00
2018-09-05T15:07:56.082Z,31.70
2018-09-05T15:10:24.949Z,31.40
2018-09-05T15:12:53.741Z,31.10
2018-09-05T15:15:22.536Z,30.60
2018-09-05T15:17:51.298Z,30.40
2018-09-05T15:20:20.066Z,30.00
2018-09-05T15:22:48.871Z,29.70
2018-09-05T15:25:17.629Z,29.20
2018-09-05T15:27:46.428Z,28.80
2018-09-05T15:30:15.249Z,28.40
2018-09-05T15:32:43.987Z,28.30
2018-09-05T15:35:12.801Z,28.10
2018-09-05T15:37:41.661Z,28.00
2018-09-05T15:40:10.650Z,27.70
2018-09-05T15:42:39.669Z,27.60
2018-09-05T15:45:08.658Z,27.40
2018-09-05T15:47:37.707Z,27.20
2018-09-05T15:50:06.797Z,27.10
2018-09-05T15:52:35.614Z,27.10
2018-09-05T15:55:04.481Z,26.90
2018-09-05T15:57:33.408Z,26.80
2018-09-05T16:00:02.286Z,26.80
2018-09-05T16:02:31.156Z,26.80
2018-09-05T16:05:00.002Z,26.80
2018-09-05T16:07:28.946Z,26.80
2018-09-05T16:09:57.813Z,26.70
2018-09-05T16:12:26.649Z,26.60
2018-09-05T16:14:55.467Z,26.50
2018-09-05T16:17:24.352Z,26.50
2018-09-05T16:19:53.539Z,26.40
2018-09-05T16:22:22.363Z,26.30
2018-09-05T16:24:51.519Z,26.10
2018-09-05T16:27:20.426Z,26.10
2018-09-05T16:29:49.396Z,26.00
2018-09-05T16:32:18.306Z,26.00
2018-09-05T16:34:47.091Z,26.00
2018-09-05T16:37:15.922Z,26.00
2018-09-05T16:39:45.733Z,26.00
2018-09-05T16:42:14.635Z,26.10
2018-09-05T16:44:43.616Z,26.10
2018-09-05T16:47:12.541Z,26.00
2018-09-05T16:49:41.519Z,25.60
2018-09-05T16:52:10.569Z,25.50
2018-09-05T16:54:39.359Z,25.40
2018-09-05T16:57:09.865Z,25.40
2018-09-05T16:59:38.702Z,25.30
2018-09-05T17:02:07.741Z,25.20
2018-09-05T17:04:36.799Z,25.10
2018-09-05T17:07:05.621Z,25.10
2018-09-05T17:09:34.340Z,25.10
2018-09-05T17:12:03.204Z,25.20
2018-09-05T17:14:32.144Z,25.20
2018-09-05T17:17:01.108Z,25.20
2018-09-05T17:19:30.091Z,25.30
2018-09-05T17:21:59.034Z,25.40
2018-09-05T17:24:27.961Z,25.30
2018-09-05T17:26:56.935Z,25.20
2018-09-05T17:29:25.895Z,25.10
2018-09-05T17:31:54.934Z,25.10
2018-09-05T17:34:23.995Z,25.00
2018-09-05T17:36:53.196Z,24.80
2018-09-05T17:39:22.278Z,24.60
2018-09-05T17:41:51.899Z,24.50
2018-09-05T17:44:21.058Z,24.50
2018-09-05T17:46:50.164Z,24.40
2018-09-05T17:49:19.248Z,24.20
2018-09-05T17:51:48.305Z,23.90
2018-09-05T17:54:17.514Z,23.70
2018-09-05T17:56:46.736Z,23.40
2018-09-05T17:59:15.840Z,23.30
2018-09-05T18:01:45.141Z,23.20
2018-09-05T18:04:15.328Z,23.10
2018-09-05T18:06:44.532Z,23.10
2018-09-05T18:09:13.624Z,23.00
2018-09-05T18:11:43.039Z,22.90
2018-09-05T18:14:13.091Z,22.90
2018-09-05T18:16:42.463Z,22.80
2018-09-05T18:19:11.816Z,22.80
2018-09-05T18:21:41.093Z,23.00
2018-09-05T18:24:11.384Z,23.20
2018-09-05T18:26:41.644Z,23.30
2018-09-05T18:29:10.850Z,23.30
2018-09-05T18:31:41.455Z,23.40
2018-09-05T18:34:11.623Z,23.40
2018-09-05T18:36:41.004Z,23.40
2018-09-05T18:39:10.389Z,23.00
2018-09-05T18:41:39.850Z,22.70
2018-09-05T18:44:09.101Z,22.30
2018-09-05T18:46:38.354Z,22.00
2018-09-05T18:49:07.800Z,21.80
2018-09-05T18:51:37.074Z,21.60
2018-09-05T18:54:06.359Z,21.50
2018-09-05T18:56:35.384Z,21.40
2018-09-05T18:59:04.727Z,21.30
2018-09-05T19:01:33.979Z,21.20
2018-09-05T19:04:03.285Z,21.20
2018-09-05T19:06:32.513Z,21.10
2018-09-05T19:09:01.693Z,21.00
2018-09-05T19:11:31.086Z,20.90
2018-09-05T19:14:00.285Z,20.80
2018-09-05T19:16:29.471Z,20.80
2018-09-05T19:18:59.437Z,20.80
2018-09-05T19:21:28.711Z,20.70
2018-09-05T19:23:57.939Z,20.60
2018-09-05T19:26:27.138Z,20.50
2018-09-05T19:28:56.916Z,20.40
2018-09-05T19:31:26.768Z,20.40
2018-09-05T19:33:56.226Z,20.30
2018-09-05T19:36:25.764Z,20.20
2018-09-05T19:38:55.120Z,20.10
2018-09-05T19:41:24.526Z,20.10
2018-09-05T19:43:55.606Z,20.10
2018-09-05T19:46:25.044Z,20.00
2018-09-05T19:48:55.155Z,19.90
2018-09-05T19:51:25.645Z,19.80
2018-09-05T19:53:54.996Z,19.80
2018-09-05T19:56:24.304Z,19.80
2018-09-05T19:58:53.531Z,19.70
2018-09-05T20:01:22.840Z,19.70
2018-09-05T20:03:52.597Z,19.60
2018-09-05T20:06:22.194Z,19.60
2018-09-05T20:08:51.178Z,19.50
2018-09-05T20:11:20.689Z,19.50
2018-09-05T20:13:50.204Z,19.40
2018-09-05T20:16:19.736Z,19.30
2018-09-05T20:18:48.802Z,19.30
2018-09-05T20:21:19.181Z,19.30
2018-09-05T20:23:48.141Z,19.30
2018-09-05T20:26:17.066Z,19.20
2018-09-05T20:28:46.761Z,19.10
2018-09-05T20:31:17.308Z,19.00
2018-09-05T20:33:47.119Z,19.00
2018-09-05T20:36:15.977Z,18.90
2018-09-05T20:38:45.885Z,18.80
2018-09-05T20:41:14.786Z,18.70
2018-09-05T20:43:44.547Z,18.60
2018-09-05T20:46:14.673Z,18.60
2018-09-05T20:48:43.776Z,18.50
2018-09-05T20:51:12.793Z,18.50
2018-09-05T20:53:41.912Z,18.50
2018-09-05T20:56:10.660Z,18.50
2018-09-05T20:58:39.509Z,18.50
2018-09-05T21:01:09.040Z,18.40
2018-09-05T21:03:38.280Z,18.40
2018-09-05T21:06:07.624Z,18.40
2018-09-05T21:08:37.421Z,18.30
2018-09-05T21:11:06.348Z,18.30
2018-09-05T21:13:35.369Z,18.20
2018-09-05T21:16:04.251Z,18.10
2018-09-05T21:18:33.115Z,18.10
2018-09-05T21:21:02.408Z,17.90
2018-09-05T21:23:32.134Z,17.90
2018-09-05T21:26:01.522Z,17.80
2018-09-05T21:28:30.514Z,17.80
2018-09-05T21:30:59.539Z,17.70
2018-09-05T21:33:28.853Z,17.80
2018-09-05T21:35:58.861Z,17.80
2018-09-05T21:38:28.969Z,17.90
2018-09-05T21:40:57.795Z,17.90
2018-09-05T21:43:27.459Z,18.00
2018-09-05T21:45:56.493Z,18.20
2018-09-05T21:51:03.606Z,18.20
2018-09-05T21:53:32.472Z,18.10
2018-09-05T21:56:01.340Z,18.10
2018-09-05T21:58:30.802Z,18.10
2018-09-05T22:00:59.938Z,18.10
2018-09-05T22:03:28.684Z,18.00
2018-09-05T22:05:57.458Z,18.00
2018-09-05T22:08:26.159Z,17.90
2018-09-05T22:10:56.020Z,17.90
2018-09-05T22:13:25.372Z,17.80
2018-09-05T22:15:54.129Z,17.70
2018-09-05T22:18:23.004Z,17.60
2018-09-05T22:20:52.286Z,17.40
2018-09-05T22:23:21.621Z,17.30
2018-09-05T22:25:50.334Z,17.20
2018-09-05T22:28:19.018Z,17.10
2018-09-05T22:30:47.819Z,17.00
2018-09-05T22:33:16.546Z,17.00
2018-09-05T22:35:45.180Z,17.00
2018-09-05T22:38:13.846Z,17.00
2018-09-05T22:40:48.100Z,17.10
2018-09-05T22:43:35.124Z,17.10
2018-09-05T22:46:20.679Z,17.10
2018-09-05T22:49:16.264Z,17.00
2018-09-05T22:52:10.671Z,16.90
2018-09-05T22:56:51.017Z,17.00
2018-09-05T22:59:35.502Z,16.90
2018-09-05T23:03:24.136Z,16.80
2018-09-05T23:08:18.837Z,16.70
2018-09-05T23:11:04.346Z,16.50
2018-09-05T23:13:49.764Z,16.50
2018-09-05T23:16:35.359Z,16.50
2018-09-05T23:19:29.771Z,16.50
2018-09-05T23:21:58.536Z,16.50
2018-09-05T23:24:27.224Z,16.40
2018-09-05T23:26:55.865Z,16.40
2018-09-05T23:29:24.483Z,16.40
2018-09-05T23:31:53.076Z,16.30
2018-09-05T23:34:21.798Z,16.20
2018-09-05T23:36:50.575Z,16.20
2018-09-05T23:39:19.358Z,16.30
2018-09-05T23:41:48.103Z,16.30
2018-09-05T23:44:16.855Z,16.30
2018-09-05T23:46:45.621Z,16.30
2018-09-05T23:49:14.443Z,16.40
2018-09-05T23:51:43.273Z,16.50
2018-09-05T23:54:11.996Z,16.50
2018-09-05T23:56:40.861Z,16.50
2018-09-05T23:59:09.613Z,16.50
